Time;durP1;ratioP1;P1;durP2;ratioP2;P2;SDS_P1;SDS_P2;PMS_P1;PMS_P2;Temp;Humidity;BMP_temperature;BMP_pressure;BME280_temperature;BME280_humidity;BME280_pressure;Samples;Min_cycle;Max_cycle;Signal;HPM_P1;HPM_P2
2021/05/23 07:59:13;;;;;;;3.65;0.70;;;;;;;20.32;48.58;99729.63;5155383;27;20402;-73
2021/05/23 08:01:39;;;;;;;3.42;1.20;;;;;;;20.35;47.86;99721.84;5171463;27;20307;-72
2021/05/23 08:04:04;;;;;;;4.38;0.75;;;;;;;20.59;48.29;99718.97;5138665;27;20042;-72
2021/05/23 08:06:33;;;;;;;3.50;0.88;;;;;;;20.77;47.28;99717.88;5138202;27;21371;-72
2021/05/23 08:08:58;;;;;;;2.42;0.70;;;;;;;20.88;46.07;99719.66;5171759;27;20034;-72
2021/05/23 08:11:24;;;;;;;2.33;0.60;;;;;;;20.82;45.38;99725.25;5172190;27;20822;-72
2021/05/23 08:13:49;;;;;;;2.65;1.20;;;;;;;20.99;46.74;99714.41;5152584;27;31495;-72
2021/05/23 08:16:15;;;;;;;1.77;0.75;;;;;;;21.38;46.11;99706.19;5171067;27;38449;-73
2021/05/23 08:18:40;;;;;;;2.92;0.73;;;;;;;21.69;45.37;99723.63;5171944;27;20056;-72
2021/05/23 08:21:06;;;;;;;3.30;0.95;;;;;;;21.80;44.36;99722.66;5172735;27;20027;-73
2021/05/23 08:23:31;;;;;;;3.97;1.08;;;;;;;22.25;45.40;99727.94;5171934;27;20023;-73
2021/05/23 08:25:57;;;;;;;2.78;0.82;;;;;;;22.40;43.33;99736.22;5173125;27;35898;-72
2021/05/23 08:28:22;;;;;;;6.03;2.50;;;;;;;22.64;43.68;99747.53;5172698;27;20079;-72
2021/05/23 08:30:48;;;;;;;3.42;0.98;;;;;;;22.87;42.49;99763.69;5172293;27;20088;-72
2021/05/23 08:33:13;;;;;;;2.72;1.00;;;;;;;22.79;41.77;99762.28;5174040;27;20027;-74
2021/05/23 08:35:40;;;;;;;4.32;0.50;;;;;;;22.58;39.84;99767.59;5173221;27;38132;-74
2021/05/23 08:38:06;;;;;;;1.75;0.50;;;;;;;22.23;38.98;99766.19;5173917;27;20031;-72
2021/05/23 08:40:31;;;;;;;1.83;0.80;;;;;;;21.93;39.20;99772.94;5172982;27;20015;-74
2021/05/23 08:42:57;;;;;;;2.03;0.57;;;;;;;21.75;38.87;99770.59;5173796;27;20027;-73
2021/05/23 08:45:22;;;;;;;4.57;0.82;;;;;;;21.44;38.54;99775.63;5172135;27;20361;-73
2021/05/23 08:47:49;;;;;;;1.70;0.50;;;;;;;21.06;38.18;99777.31;5173749;27;20516;-73
2021/05/23 08:50:18;;;;;;;7.00;4.53;;;;;;;21.01;39.20;99782.63;5174067;27;20027;-74
2021/05/23 08:52:44;;;;;;;2.35;0.73;;;;;;;20.82;38.14;99784.81;5172152;27;20031;-75
2021/05/23 08:55:10;;;;;;;3.13;0.93;;;;;;;20.68;38.13;99785.16;5173797;27;20031;-75
2021/05/23 08:57:35;;;;;;;2.45;0.70;;;;;;;20.62;38.57;99792.31;5171542;27;20043;-74
2021/05/23 09:00:03;;;;;;;2.13;0.85;;;;;;;20.79;38.94;99786.97;5173899;27;20027;-74
2021/05/23 09:02:29;;;;;;;2.83;0.55;;;;;;;21.02;38.71;99795.13;5172395;27;20034;-75
2021/05/23 09:04:55;;;;;;;3.45;0.60;;;;;;;21.07;38.32;99797.91;5173881;27;20030;-75
2021/05/23 09:07:21;;;;;;;2.83;0.93;;;;;;;21.03;37.84;99788.63;5173861;27;20479;-75
2021/05/23 09:09:47;;;;;;;2.13;0.60;;;;;;;21.11;38.29;99790.91;5163391;27;20019;-75
2021/05/23 09:12:13;;;;;;;2.97;1.05;;;;;;;21.16;37.46;99791.00;5159965;27;20102;-75
2021/05/23 09:14:45;;;;;;;3.35;0.70;;;;;;;21.20;37.46;99786.72;5140841;27;20096;-74
2021/05/23 09:17:24;;;;;;;2.50;0.63;;;;;;;21.15;37.16;99797.47;5141367;27;20493;-74
2021/05/23 09:19:50;;;;;;;1.60;0.83;;;;;;;21.38;37.94;99793.72;5158133;27;20031;-75
2021/05/23 09:22:18;;;;;;;1.83;0.50;;;;;;;21.56;37.45;99791.81;5159732;27;20466;-72
2021/05/23 09:24:57;;;;;;;2.28;0.68;;;;;;;21.65;36.65;99798.38;5159206;27;20502;-70
2021/05/23 09:27:24;;;;;;;3.25;0.70;;;;;;;21.76;36.90;99805.59;5158192;27;20027;-71
2021/05/23 09:30:06;;;;;;;6.15;1.10;;;;;;;21.74;36.07;99813.13;5140725;27;20063;-72
2021/05/23 09:32:36;;;;;;;1.33;0.68;;;;;;;21.53;35.47;99812.09;5157983;27;20108;-72
2021/05/23 09:35:04;;;;;;;2.47;0.82;;;;;;;21.40;35.71;99824.06;5158928;27;20543;-71
2021/05/23 09:37:29;;;;;;;2.58;0.70;;;;;;;21.46;36.03;99824.97;5158841;27;20031;-72
2021/05/23 09:39:55;;;;;;;0.90;0.50;;;;;;;21.40;35.40;99832.19;5139494;27;33417;-70
2021/05/23 09:42:22;;;;;;;3.60;0.98;;;;;;;21.31;35.29;99822.91;5157506;27;20031;-71
2021/05/23 09:44:48;;;;;;;2.90;0.68;;;;;;;21.15;35.37;99834.59;5158829;27;20108;-69
2021/05/23 09:47:14;;;;;;;1.73;0.75;;;;;;;20.98;34.53;99829.19;5174723;27;20019;-71
2021/05/23 09:49:45;;;;;;;4.88;0.90;;;;;;;20.64;34.93;99821.88;5157183;27;20079;-70
2021/05/23 09:52:15;;;;;;;1.35;0.60;;;;;;;20.49;34.81;99833.25;5158785;27;20051;-69
2021/05/23 09:54:51;;;;;;;3.17;1.20;;;;;;;20.33;34.54;99831.38;5157161;27;20035;-70
2021/05/23 09:57:20;;;;;;;2.40;0.73;;;;;;;19.95;34.43;99831.75;5158786;27;20035;-71
2021/05/23 09:59:45;;;;;;;2.08;0.60;;;;;;;19.78;34.95;99830.84;5157459;27;20462;-70
2021/05/23 10:02:12;;;;;;;2.17;0.52;;;;;;;19.62;34.84;99838.63;5158856;27;20034;-70
2021/05/23 10:04:38;;;;;;;2.88;1.05;;;;;;;19.24;34.53;99845.38;5158746;27;20038;-72
2021/05/23 10:07:05;;;;;;;2.53;0.60;;;;;;;18.82;34.62;99845.50;5143363;27;20077;-71
2021/05/23 10:09:30;;;;;;;1.10;0.50;;;;;;;18.40;34.80;99832.03;5136346;27;20027;-71
2021/05/23 10:11:56;;;;;;;2.47;0.57;;;;;;;17.98;34.91;99843.59;5136003;27;20019;-71
2021/05/23 10:14:22;;;;;;;3.67;0.80;;;;;;;17.69;35.55;99847.88;5134765;27;20028;-71
2021/05/23 10:16:51;;;;;;;3.78;1.20;;;;;;;17.51;36.53;99851.38;5134711;27;20019;-72
2021/05/23 10:19:27;;;;;;;2.15;0.70;;;;;;;17.48;37.21;99857.22;5117864;27;20546;-72
2021/05/23 10:21:52;;;;;;;2.58;0.80;;;;;;;17.59;37.79;99862.69;5099492;27;20027;-74
2021/05/23 10:24:37;;;;;;;3.05;1.08;;;;;;;18.21;39.94;99850.97;5134743;27;20031;-74
2021/05/23 10:27:04;;;;;;;3.08;0.80;;;;;;;18.88;40.23;99852.66;5136254;27;20024;-73
2021/05/23 10:29:31;;;;;;;2.70;1.73;;;;;;;19.46;40.05;99847.47;5134702;27;20039;-70
2021/05/23 10:32:08;;;;;;;2.65;0.80;;;;;;;19.93;40.05;99852.00;5133699;27;20436;-71
2021/05/23 10:34:46;;;;;;;3.13;1.50;;;;;;;20.20;38.93;99852.25;5117848;27;20054;-71
2021/05/23 10:37:18;;;;;;;2.33;0.82;;;;;;;20.27;38.97;99852.06;5134956;27;20028;-72
2021/05/23 10:39:50;;;;;;;2.92;0.70;;;;;;;20.34;38.99;99857.31;5135870;27;20034;-69
2021/05/23 10:42:16;;;;;;;3.03;1.00;;;;;;;20.24;38.17;99855.25;5133869;27;20019;-71
2021/05/23 10:44:47;;;;;;;2.83;0.80;;;;;;;20.23;38.70;99848.19;5135122;27;33970;-71
2021/05/23 10:47:17;;;;;;;3.42;1.00;;;;;;;20.28;38.89;99843.72;5134353;27;20069;-70
2021/05/23 10:49:58;;;;;;;2.78;0.90;;;;;;;20.40;38.18;99848.25;5135758;27;20507;-70
2021/05/23 10:52:28;;;;;;;3.45;0.88;;;;;;;20.31;37.89;99844.28;5134416;27;20932;-70
2021/05/23 10:54:57;;;;;;;3.03;1.00;;;;;;;20.20;38.27;99846.84;5134004;27;20023;-69
2021/05/23 10:57:22;;;;;;;3.13;0.90;;;;;;;20.26;38.17;99843.13;5135393;27;20086;-70
2021/05/23 11:00:00;;;;;;;3.95;1.10;;;;;;;20.34;38.55;99839.22;5134932;27;29168;-71
2021/05/23 11:02:36;;;;;;;4.68;1.00;;;;;;;20.40;37.94;99837.44;5134435;27;20054;-69
2021/05/23 11:05:06;;;;;;;4.15;0.70;;;;;;;20.25;38.37;99827.97;5117388;27;20667;-70
2021/05/23 11:07:31;;;;;;;3.50;1.13;;;;;;;20.39;38.38;99822.25;5133458;27;20031;-67
2021/05/23 11:10:00;;;;;;;7.15;1.67;;;;;;;20.58;38.41;99826.34;5134874;27;31015;-74
2021/05/23 11:12:25;;;;;;;4.57;1.10;;;;;;;20.73;38.27;99825.81;5099608;27;20028;-73
2021/05/23 11:14:57;;;;;;;3.33;0.90;;;;;;;20.82;37.98;99834.38;5134593;27;34454;-72
2021/05/23 11:17:22;;;;;;;1.65;0.80;;;;;;;20.96;37.84;99835.66;5133822;27;20034;-72
2021/05/23 11:19:48;;;;;;;3.92;0.90;;;;;;;21.11;38.16;99832.34;5134905;27;20062;-73
2021/05/23 11:22:13;;;;;;;3.38;1.00;;;;;;;21.61;39.15;99827.91;5135281;27;20427;-73
2021/05/23 11:24:40;;;;;;;3.90;0.80;;;;;;;22.05;38.41;99818.91;5116503;27;20488;-73
2021/05/23 11:27:16;;;;;;;3.00;0.98;;;;;;;22.12;37.10;99824.13;5135374;27;20111;-74
2021/05/23 11:29:45;;;;;;;3.22;0.95;;;;;;;22.21;36.17;99827.19;5134652;27;20817;-75
2021/05/23 11:32:12;;;;;;;3.20;0.90;;;;;;;22.09;36.53;99819.19;5099349;27;20035;-77
2021/05/23 11:34:37;;;;;;;2.50;1.15;;;;;;;21.98;35.52;99819.09;5133681;27;20060;-75
2021/05/23 11:37:02;;;;;;;3.72;1.20;;;;;;;21.61;34.55;99830.63;5116182;27;20024;-75
2021/05/23 11:39:30;;;;;;;2.67;1.02;;;;;;;21.18;34.94;99828.66;5132793;27;34969;-74
2021/05/23 11:41:57;;;;;;;2.58;1.00;;;;;;;21.04;35.38;99829.00;5134443;27;20027;-73
2021/05/23 11:44:32;;;;;;;4.30;1.20;;;;;;;21.03;35.61;99818.44;5135210;27;20077;-74
2021/05/23 11:46:59;;;;;;;3.30;0.75;;;;;;;21.08;34.96;99826.63;5104384;28;20105;-70
2021/05/23 11:49:26;;;;;;;3.67;1.45;;;;;;;20.89;35.14;99818.78;5130717;27;20023;-69
2021/05/23 11:51:57;;;;;;;1.85;0.73;;;;;;;20.88;35.63;99814.41;5134260;27;20031;-70
2021/05/23 11:54:23;;;;;;;2.63;1.15;;;;;;;20.85;35.42;99817.63;5134643;27;20035;-70
2021/05/23 11:56:48;;;;;;;4.32;1.27;;;;;;;20.76;35.19;99810.97;5133690;27;33863;-68
2021/05/23 11:59:13;;;;;;;4.75;1.25;;;;;;;20.83;35.57;99806.25;5133535;27;38570;-68
2021/05/23 12:01:40;;;;;;;2.65;0.80;;;;;;;20.66;34.48;99813.50;5134234;27;28993;-71
2021/05/23 12:04:06;;;;;;;4.30;0.90;;;;;;;20.65;35.51;99795.63;5134764;27;20089;-73
2021/05/23 12:06:39;;;;;;;4.03;1.00;;;;;;;20.93;36.25;99809.09;5133022;27;20034;-73
2021/05/23 12:09:14;;;;;;;1.65;0.95;;;;;;;21.54;35.97;99802.06;5133289;27;20034;-72
2021/05/23 12:11:41;;;;;;;4.18;0.75;;;;;;;21.69;35.76;99804.94;5134231;27;20024;-72
2021/05/23 12:14:19;;;;;;;1.85;0.90;;;;;;;21.80;35.02;99805.88;5116346;27;20036;-72
2021/05/23 12:16:44;;;;;;;2.05;0.80;;;;;;;21.98;35.91;99805.56;5134661;27;20568;-72
2021/05/23 12:19:10;;;;;;;2.55;0.70;;;;;;;22.33;35.05;99810.75;5133262;27;20032;-69
2021/05/23 12:21:35;;;;;;;5.30;1.10;;;;;;;22.50;34.25;99802.50;5131438;27;38859;-69
2021/05/23 12:24:02;;;;;;;2.50;0.70;;;;;;;22.52;34.63;99820.19;5132680;27;20053;-69
2021/05/23 12:26:29;;;;;;;2.20;0.80;;;;;;;22.31;33.80;99806.41;5115414;27;20103;-69
2021/05/23 12:28:54;;;;;;;3.28;0.77;;;;;;;22.30;34.00;99812.09;5132910;27;20028;-70
2021/05/23 12:31:21;;;;;;;3.00;0.80;;;;;;;22.17;33.51;99785.38;5154151;27;20028;-69
2021/05/23 12:33:54;;;;;;;5.57;2.88;;;;;;;22.12;33.69;99807.84;5141914;27;20035;-70
2021/05/23 12:36:20;;;;;;;1.83;0.50;;;;;;;21.91;32.29;99810.38;5133704;27;20046;-72
2021/05/23 12:38:58;;;;;;;0.80;0.50;;;;;;;21.75;33.10;99814.78;5151841;27;20031;-71
2021/05/23 12:41:37;;;;;;;1.67;0.68;;;;;;;21.72;32.53;99819.88;5147891;27;20062;-69
2021/05/23 12:44:03;;;;;;;2.45;0.52;;;;;;;21.49;32.25;99808.22;5145692;27;20035;-71
2021/05/23 12:46:28;;;;;;;1.90;0.60;;;;;;;21.44;31.92;99818.97;5103645;27;20793;-71
2021/05/23 12:48:54;;;;;;;2.17;0.50;;;;;;;21.22;31.88;99816.25;5138569;27;29911;-71
2021/05/23 12:51:21;;;;;;;2.35;0.50;;;;;;;21.03;32.15;99813.81;5137872;27;20030;-71
2021/05/23 12:53:53;;;;;;;1.40;0.55;;;;;;;20.85;31.86;99825.75;5135185;27;20062;-71
2021/05/23 12:56:27;;;;;;;2.42;0.68;;;;;;;20.69;32.14;99821.16;5136464;27;20027;-71
2021/05/23 12:58:59;;;;;;;1.70;0.77;;;;;;;20.70;32.39;99828.22;5137480;27;20155;-69
2021/05/23 13:01:30;;;;;;;2.53;0.82;;;;;;;20.53;32.09;99831.72;5137617;27;20102;-69
2021/05/23 13:03:56;;;;;;;1.95;0.90;;;;;;;20.48;32.60;99830.81;5119235;27;20032;-71
2021/05/23 13:06:22;;;;;;;1.75;0.80;;;;;;;20.53;32.81;99831.72;5136117;27;20051;-70
2021/05/23 13:08:57;;;;;;;1.55;0.60;;;;;;;20.66;32.89;99840.56;5138923;27;20059;-71
2021/05/23 13:11:23;;;;;;;2.65;0.70;;;;;;;20.61;32.71;99838.59;5138838;27;20492;-71
2021/05/23 13:13:48;;;;;;;4.30;0.77;;;;;;;20.69;32.99;99838.22;5138756;27;20038;-71
2021/05/23 13:16:14;;;;;;;3.45;1.00;;;;;;;20.92;33.48;99828.28;5137832;27;20019;-72
2021/05/23 13:18:43;;;;;;;3.13;1.00;;;;;;;21.23;33.61;99839.56;5138745;27;20032;-72
2021/05/23 13:21:13;;;;;;;5.25;1.20;;;;;;;21.20;32.76;99835.47;5137791;27;20099;-72
2021/05/23 13:23:40;;;;;;;2.27;0.70;;;;;;;20.98;32.33;99826.47;5138755;27;20028;-72
2021/05/23 13:26:06;;;;;;;2.78;0.85;;;;;;;20.92;32.78;99834.50;5137726;27;20131;-72
2021/05/23 13:28:31;;;;;;;4.40;1.10;;;;;;;20.98;33.13;99835.41;5137579;27;20081;-73
2021/05/23 13:30:57;;;;;;;5.82;0.90;;;;;;;21.13;33.33;99824.81;5137433;27;20023;-71
2021/05/23 13:33:23;;;;;;;1.35;0.80;;;;;;;21.28;33.09;99826.91;5138457;27;20056;-71
2021/05/23 13:35:49;;;;;;;3.45;0.90;;;;;;;21.13;32.28;99827.53;5137083;27;20027;-72
2021/05/23 13:38:14;;;;;;;2.08;0.85;;;;;;;20.84;32.08;99831.41;5137694;27;30201;-71
2021/05/23 13:40:39;;;;;;;2.22;0.90;;;;;;;20.53;32.27;99830.88;5138435;27;20045;-71
2021/05/23 13:43:05;;;;;;;4.32;1.00;;;;;;;20.21;32.11;99829.50;5137550;27;35481;-72
2021/05/23 13:45:30;;;;;;;2.50;0.95;;;;;;;19.85;32.39;99836.16;5135674;27;38166;-71
2021/05/23 13:47:56;;;;;;;4.47;1.35;;;;;;;19.72;32.96;99840.72;5138282;27;20031;-72
2021/05/23 13:50:21;;;;;;;2.60;1.33;;;;;;;19.67;33.16;99840.63;5138152;27;20054;-71
2021/05/23 13:52:49;;;;;;;3.42;1.02;;;;;;;19.48;32.97;99842.66;5137545;27;35655;-73
2021/05/23 13:55:15;;;;;;;2.72;0.95;;;;;;;19.21;33.03;99842.34;5137738;27;20104;-73
2021/05/23 13:57:40;;;;;;;3.80;1.45;;;;;;;18.99;33.38;99844.81;5152365;27;31622;-72
2021/05/23 14:00:06;;;;;;;2.03;1.00;;;;;;;18.77;33.60;99851.56;5137170;27;35432;-72
2021/05/23 14:02:32;;;;;;;3.95;1.55;;;;;;;18.57;33.94;99843.78;5136418;27;20089;-71
2021/05/23 14:04:57;;;;;;;8.32;1.20;;;;;;;18.49;34.22;99856.78;5137284;27;33832;-72
2021/05/23 14:07:22;;;;;;;3.65;1.10;;;;;;;18.29;34.38;99854.38;5137884;27;20027;-72
2021/05/23 14:09:48;;;;;;;2.20;1.15;;;;;;;18.00;34.97;99870.31;5136795;27;20039;-72
2021/05/23 14:12:13;;;;;;;3.28;1.30;;;;;;;17.67;36.01;99879.59;5135714;27;33597;-72
2021/05/23 14:14:39;;;;;;;4.80;2.47;;;;;;;17.33;35.49;99895.28;5137927;27;20081;-72
2021/05/23 14:17:04;;;;;;;3.97;1.20;;;;;;;17.12;36.44;99880.38;5137736;27;20346;-72
2021/05/23 14:19:29;;;;;;;2.33;0.90;;;;;;;16.90;36.49;99884.25;5153777;27;20483;-73
2021/05/23 14:21:55;;;;;;;1.25;0.88;;;;;;;16.74;36.42;99874.84;5136123;27;20036;-72
2021/05/23 14:24:20;;;;;;;3.03;0.75;;;;;;;16.69;37.24;99873.84;5137259;27;28175;-72
2021/05/23 14:26:48;;;;;;;5.43;2.90;;;;;;;16.61;37.02;99884.88;5134989;27;36404;-73
2021/05/23 14:29:16;;;;;;;2.50;1.00;;;;;;;16.53;37.21;99891.34;5119074;27;20027;-74
2021/05/23 14:31:41;;;;;;;2.50;1.05;;;;;;;16.49;37.54;99890.13;5135944;27;20034;-73
2021/05/23 14:34:06;;;;;;;1.30;0.77;;;;;;;16.53;38.07;99888.66;5137348;27;20425;-74
2021/05/23 14:36:32;;;;;;;3.55;1.15;;;;;;;16.60;38.11;99888.63;5136772;27;40041;-73
2021/05/23 14:38:58;;;;;;;4.88;1.50;;;;;;;16.69;38.19;99898.03;5136284;27;32122;-73
2021/05/23 14:41:23;;;;;;;2.88;1.00;;;;;;;16.71;38.84;99898.66;5152945;27;20035;-73
2021/05/23 14:43:48;;;;;;;2.25;1.10;;;;;;;16.73;38.76;99910.00;5136065;27;20391;-73
2021/05/23 14:46:14;;;;;;;5.32;1.27;;;;;;;16.72;38.89;99916.47;5135948;27;20020;-73
2021/05/23 14:48:39;;;;;;;4.97;1.23;;;;;;;16.76;39.22;99920.34;5118201;27;20034;-73
2021/05/23 14:51:05;;;;;;;2.65;1.20;;;;;;;16.77;39.48;99921.97;5137079;27;20050;-74
2021/05/23 14:53:30;;;;;;;3.55;1.02;;;;;;;16.74;39.92;99927.81;5135484;27;20468;-72
2021/05/23 14:55:56;;;;;;;2.80;1.10;;;;;;;16.75;40.24;99929.47;5136282;27;20023;-73
2021/05/23 14:58:22;;;;;;;2.60;1.13;;;;;;;16.85;40.07;99928.97;5118548;27;20044;-73
2021/05/23 15:00:49;;;;;;;3.60;0.95;;;;;;;16.91;40.54;99937.03;5136759;27;20034;-73
2021/05/23 15:03:14;;;;;;;2.25;1.00;;;;;;;16.84;40.70;99928.16;5135634;27;20023;-74
2021/05/23 15:05:39;;;;;;;2.92;1.27;;;;;;;16.87;41.17;99934.97;5136669;27;20031;-73
2021/05/23 15:08:05;;;;;;;2.63;0.95;;;;;;;16.92;41.04;99941.38;5134478;27;20117;-75
2021/05/23 15:10:30;;;;;;;1.88;0.80;;;;;;;16.92;40.90;99941.38;5136480;27;20353;-69
2021/05/23 15:12:56;;;;;;;2.33;0.90;;;;;;;16.84;40.98;99956.91;5136032;27;40236;-68
2021/05/23 15:15:24;;;;;;;3.00;0.80;;;;;;;16.70;40.78;99962.41;5136243;27;34707;-70
2021/05/23 15:17:49;;;;;;;1.30;0.57;;;;;;;16.52;40.79;99957.72;5132901;27;20031;-71
2021/05/23 15:20:14;;;;;;;1.50;0.80;;;;;;;16.35;40.64;99949.34;5149927;27;20042;-70
2021/05/23 15:22:40;;;;;;;0.57;0.40;;;;;;;16.16;40.88;99969.88;5155439;27;28148;-70
2021/05/23 15:25:06;;;;;;;2.33;1.13;;;;;;;16.00;40.86;99975.72;5155023;27;28309;-71
2021/05/23 15:30:24;;;;;;;2.72;0.73;;;;;;;15.54;41.43;99966.69;5152263;27;20134;-69
2021/05/23 15:32:50;;;;;;;1.88;0.95;;;;;;;15.38;41.62;99974.13;5156431;27;20415;-70
2021/05/23 15:35:16;;;;;;;2.90;0.82;;;;;;;15.28;42.16;99978.28;5154930;27;20019;-70
2021/05/23 15:37:41;;;;;;;2.72;0.90;;;;;;;15.15;42.23;99974.56;5155467;27;31340;-69
2021/05/23 15:40:07;;;;;;;2.17;1.02;;;;;;;15.14;42.87;99988.19;5153511;27;42006;-71
2021/05/23 15:42:32;;;;;;;2.65;1.00;;;;;;;15.12;43.04;99991.06;5153781;27;20100;-69
2021/05/23 15:44:58;;;;;;;2.83;0.70;;;;;;;15.12;43.42;99993.75;5155118;27;32819;-69
2021/05/23 15:47:23;;;;;;;1.40;0.70;;;;;;;15.13;43.79;99995.41;5170791;27;33997;-69
2021/05/23 15:49:48;;;;;;;2.25;1.13;;;;;;;15.15;44.11;99982.59;5154146;27;20471;-70
2021/05/23 15:52:14;;;;;;;1.85;0.77;;;;;;;15.17;44.07;99985.91;5153273;27;36989;-70
2021/05/23 15:54:39;;;;;;;2.03;0.90;;;;;;;15.21;44.21;99981.78;5151624;27;27716;-70
2021/05/23 15:57:05;;;;;;;1.80;0.90;;;;;;;15.27;43.99;99981.97;5133816;27;38803;-70
2021/05/23 15:59:31;;;;;;;1.48;0.98;;;;;;;15.28;44.90;99994.38;5154140;27;20031;-69
2021/05/23 16:01:56;;;;;;;1.73;0.98;;;;;;;15.20;44.30;99984.69;5154543;27;36759;-70
2021/05/23 16:04:21;;;;;;;1.77;1.17;;;;;;;15.14;45.23;99993.53;5154918;27;36118;-70
2021/05/23 16:06:47;;;;;;;2.33;0.93;;;;;;;15.08;45.24;100000.56;5153614;27;20046;-69
2021/05/23 16:09:12;;;;;;;2.28;1.10;;;;;;;15.05;45.36;100009.84;5155357;27;20063;-70
2021/05/23 16:11:37;;;;;;;2.08;1.10;;;;;;;15.05;45.86;99998.28;5155142;27;20031;-70
2021/05/23 16:14:03;;;;;;;2.40;1.00;;;;;;;15.06;45.50;99997.25;5153450;27;28786;-69
2021/05/23 16:16:29;;;;;;;2.30;0.88;;;;;;;15.06;46.58;100007.97;5150233;27;20442;-70
2021/05/23 16:18:54;;;;;;;4.32;1.10;;;;;;;15.04;46.79;100010.03;5155656;27;20032;-69
2021/05/23 16:21:20;;;;;;;4.28;1.33;;;;;;;14.98;46.93;100000.13;5157338;27;20019;-70
2021/05/23 16:23:47;;;;;;;2.72;1.02;;;;;;;15.01;47.11;100000.53;5158341;27;20112;-69
2021/05/23 16:26:13;;;;;;;1.65;0.82;;;;;;;15.05;47.35;100014.38;5157384;27;20027;-69
2021/05/23 16:28:38;;;;;;;2.20;1.20;;;;;;;15.12;47.93;100012.53;5158067;27;20483;-69
2021/05/23 16:31:05;;;;;;;3.83;1.52;;;;;;;15.13;48.05;100000.78;5157539;27;20027;-69
2021/05/23 16:33:30;;;;;;;3.00;1.40;;;;;;;15.19;47.99;100002.63;5157570;27;20030;-79
2021/05/23 16:35:56;;;;;;;2.95;1.20;;;;;;;15.25;48.40;100008.22;5157584;27;20495;-71
2021/05/23 16:38:21;;;;;;;4.47;2.00;;;;;;;15.32;48.59;100000.97;5158439;27;20039;-69
2021/05/23 16:40:47;;;;;;;3.97;1.80;;;;;;;15.47;48.81;100003.47;5159296;27;20023;-70
2021/05/23 16:43:14;;;;;;;3.30;1.42;;;;;;;15.57;48.33;100010.06;5158944;27;20118;-72
2021/05/23 16:45:41;;;;;;;2.33;1.20;;;;;;;15.66;48.83;100005.28;5150476;27;20046;-75
2021/05/23 16:48:06;;;;;;;2.72;1.13;;;;;;;15.66;48.40;100015.22;5158299;27;20797;-76
2021/05/23 16:50:32;;;;;;;3.63;1.30;;;;;;;15.56;48.45;100013.78;5158064;27;20027;-72
2021/05/23 16:52:57;;;;;;;3.85;1.10;;;;;;;15.44;48.64;100020.78;5156976;27;34664;-73
2021/05/23 16:55:24;;;;;;;6.15;1.58;;;;;;;15.35;48.26;100022.88;5158448;27;20031;-72
2021/05/23 16:57:49;;;;;;;7.20;4.25;;;;;;;15.27;48.23;100019.53;5156359;27;20043;-70
2021/05/23 17:00:15;;;;;;;2.63;1.10;;;;;;;15.14;48.12;100015.81;5156199;27;39004;-72
2021/05/23 17:02:41;;;;;;;3.92;1.80;;;;;;;15.02;48.56;100025.50;5158535;27;20480;-72
2021/05/23 17:05:07;;;;;;;4.22;1.50;;;;;;;14.96;49.07;100020.97;5139565;27;20032;-78
2021/05/23 17:07:32;;;;;;;4.65;2.17;;;;;;;14.91;49.14;100024.25;5156271;27;20043;-74
2021/05/23 17:09:57;;;;;;;4.60;2.22;;;;;;;14.91;49.17;100023.41;5140101;27;20034;-76
2021/05/23 17:12:23;;;;;;;2.95;1.40;;;;;;;14.90;49.24;100025.28;5157414;27;20023;-73
2021/05/23 17:14:48;;;;;;;1.83;1.00;;;;;;;14.89;50.05;100035.16;5158251;27;20418;-72
2021/05/23 17:17:14;;;;;;;2.53;1.38;;;;;;;14.80;49.20;100041.75;5157675;27;20023;-72
2021/05/23 17:19:39;;;;;;;2.63;1.45;;;;;;;14.71;49.87;100041.09;5158999;27;20043;-74
2021/05/23 17:22:05;;;;;;;5.05;1.63;;;;;;;14.64;50.32;100039.41;5157624;27;34805;-72
2021/05/23 17:24:31;;;;;;;2.72;1.42;;;;;;;14.53;50.89;100052.34;5157540;27;20561;-71
2021/05/23 17:26:56;;;;;;;4.53;2.00;;;;;;;14.46;50.22;100046.16;5158676;27;20027;-77
2021/05/23 17:29:22;;;;;;;3.20;1.48;;;;;;;14.40;50.33;100046.94;5158032;27;20039;-71
2021/05/23 17:31:52;;;;;;;4.47;1.40;;;;;;;14.34;50.67;100055.78;5155439;27;36149;-71
2021/05/23 17:34:17;;;;;;;4.05;1.63;;;;;;;14.29;50.82;100061.72;5140113;27;20077;-72
2021/05/23 17:36:46;;;;;;;3.15;1.50;;;;;;;14.22;50.39;100055.50;5157881;27;20400;-71
2021/05/23 17:39:11;;;;;;;3.30;1.63;;;;;;;14.15;50.75;100066.16;5156536;27;20096;-74
2021/05/23 17:41:36;;;;;;;2.95;1.65;;;;;;;14.14;51.39;100053.78;5154994;27;37206;-72
2021/05/23 17:44:02;;;;;;;4.80;1.48;;;;;;;14.11;51.27;100069.44;5157342;27;38420;-72
2021/05/23 17:46:27;;;;;;;3.90;1.50;;;;;;;14.05;51.84;100068.34;5156113;27;20023;-74
2021/05/23 17:48:53;;;;;;;2.95;1.30;;;;;;;14.00;52.12;100073.50;5157330;27;23791;-73
2021/05/23 17:51:18;;;;;;;4.43;2.50;;;;;;;13.93;51.96;100067.25;5155472;27;35261;-73
2021/05/23 17:53:44;;;;;;;4.95;1.40;;;;;;;13.82;52.79;100077.47;5156406;27;34128;-74
2021/05/23 17:56:09;;;;;;;3.78;1.50;;;;;;;13.67;52.14;100084.78;5156277;27;20030;-75
2021/05/23 17:58:34;;;;;;;4.05;1.23;;;;;;;13.53;52.94;100091.84;5137840;27;37551;-74
2021/05/23 18:01:00;;;;;;;2.85;1.48;;;;;;;13.41;52.60;100085.34;5156856;27;35478;-75
2021/05/23 18:03:25;;;;;;;3.42;1.60;;;;;;;13.32;53.06;100088.13;5157029;27;27682;-74
2021/05/23 18:05:50;;;;;;;2.60;1.35;;;;;;;13.22;53.07;100098.31;5156533;27;32954;-76
2021/05/23 18:08:16;;;;;;;2.75;1.60;;;;;;;13.15;54.13;100092.06;5158275;27;20031;-76
2021/05/23 18:10:43;;;;;;;3.95;1.77;;;;;;;13.06;53.40;100095.88;5174760;27;20388;-78
2021/05/23 18:13:08;;;;;;;4.93;2.05;;;;;;;13.00;54.78;100090.28;5142615;27;20112;-74
2021/05/23 18:15:33;;;;;;;3.47;1.75;;;;;;;12.93;54.31;100096.53;5134260;27;20492;-74
2021/05/23 18:17:59;;;;;;;3.35;1.45;;;;;;;12.86;54.73;100104.50;5135428;27;40422;-75
2021/05/23 18:20:25;;;;;;;3.80;1.40;;;;;;;12.79;55.21;100106.25;5117214;27;29518;-76
2021/05/23 18:22:50;;;;;;;4.68;1.65;;;;;;;12.74;54.77;100100.63;5136206;27;20069;-75
2021/05/23 18:25:17;;;;;;;5.75;1.80;;;;;;;12.66;55.42;100104.25;5134614;27;20035;-75
2021/05/23 18:27:42;;;;;;;3.28;1.60;;;;;;;12.55;55.37;100113.56;5135383;27;20027;-75
2021/05/23 18:30:08;;;;;;;3.03;1.35;;;;;;;12.47;55.33;100106.47;5139295;27;20016;-74
2021/05/23 18:32:33;;;;;;;7.13;2.50;;;;;;;12.39;55.31;100114.59;5138644;27;20058;-73
2021/05/23 18:35:00;;;;;;;5.10;2.03;;;;;;;12.32;55.90;100111.81;5144478;27;29562;-74
2021/05/23 18:37:25;;;;;;;5.38;2.45;;;;;;;12.24;55.43;100111.09;5146567;27;20066;-70
2021/05/23 18:39:52;;;;;;;4.07;2.13;;;;;;;12.17;55.93;100113.66;5146869;27;20112;-71
2021/05/23 18:42:19;;;;;;;3.70;1.70;;;;;;;12.10;55.95;100112.72;5145222;27;20493;-70
2021/05/23 18:44:45;;;;;;;3.90;1.65;;;;;;;12.05;55.92;100120.44;5116264;27;20038;-79
2021/05/23 18:47:12;;;;;;;4.53;1.88;;;;;;;11.99;56.55;100122.81;5125806;27;20053;-70
2021/05/23 18:49:41;;;;;;;6.35;2.10;;;;;;;11.95;56.29;100128.72;5131742;27;20047;-71
2021/05/23 18:52:06;;;;;;;5.60;2.28;;;;;;;11.90;56.73;100131.88;5135043;27;20034;-70
2021/05/23 18:54:32;;;;;;;4.75;2.40;;;;;;;11.83;56.53;100129.09;5134537;27;43321;-69
2021/05/23 18:56:58;;;;;;;7.22;2.75;;;;;;;11.75;57.00;100139.03;5135887;27;39800;-70
2021/05/23 18:59:23;;;;;;;6.90;3.50;;;;;;;11.66;57.33;100136.41;5135831;27;20047;-70
2021/05/23 19:01:49;;;;;;;5.38;2.55;;;;;;;11.60;57.56;100147.78;5132701;27;40211;-74
2021/05/23 19:04:14;;;;;;;4.85;2.50;;;;;;;11.54;57.54;100153.00;5134657;27;31350;-76
2021/05/23 19:06:40;;;;;;;5.40;2.78;;;;;;;11.48;57.47;100163.41;5135495;27;20028;-71
2021/05/23 19:09:06;;;;;;;5.95;2.35;;;;;;;11.43;57.93;100160.44;5136831;27;20065;-72
2021/05/23 19:11:32;;;;;;;5.13;2.33;;;;;;;11.38;57.47;100164.63;5136480;27;20156;-71
2021/05/23 19:13:57;;;;;;;6.00;2.83;;;;;;;11.34;58.64;100165.00;5136147;27;34208;-77
2021/05/23 19:16:22;;;;;;;5.78;3.20;;;;;;;11.31;58.00;100170.66;5123764;27;38327;-79
